Time;durP1;ratioP1;P1;durP2;ratioP2;P2;SDS_P1;SDS_P2;PMS_P1;PMS_P2;Temp;Humidity;BMP_temperature;BMP_pressure;BME280_temperature;BME280_humidity;BME280_pressure;Samples;Min_cycle;Max_cycle;Signal;HPM_P1;HPM_P2
2022/01/05 00:02:51;;;;;;;15.32;9.73;;;7.30;88.80;;;;;;10944086;32;20027;-69
2022/01/05 00:09:21;;;;;;;20.83;11.95;;;7.30;88.80;;;;;;10943982;32;20069;-69
2022/01/05 00:15:30;;;;;;;14.73;9.50;;;7.30;88.80;;;;;;10943696;32;20054;-69
2022/01/05 00:21:38;;;;;;;16.05;8.25;;;7.30;88.80;;;;;;10943423;32;20077;-69
2022/01/05 00:27:40;;;;;;;15.90;10.55;;;7.30;88.80;;;;;;10943207;32;20065;-69
2022/01/05 00:33:42;;;;;;;14.93;10.65;;;7.30;88.70;;;;;;10939684;32;20041;-69
2022/01/05 00:39:44;;;;;;;25.30;15.35;;;7.20;88.70;;;;;;10942656;32;20023;-69
2022/01/05 00:45:50;;;;;;;21.77;14.13;;;7.30;88.70;;;;;;10942563;32;20023;-70
2022/01/05 00:51:52;;;;;;;34.03;21.40;;;7.20;88.70;;;;;;10930263;32;20328;-70
2022/01/05 00:57:54;;;;;;;23.80;12.68;;;7.20;88.80;;;;;;10941741;32;20019;-71
2022/01/05 01:04:05;;;;;;;20.67;13.70;;;7.20;88.80;;;;;;10943009;32;20046;-70
2022/01/05 01:10:11;;;;;;;46.97;25.00;;;7.20;88.80;;;;;;10928662;32;20042;-70
2022/01/05 01:16:19;;;;;;;22.90;13.52;;;7.20;88.70;;;;;;10938245;32;20081;-71
2022/01/05 01:22:22;;;;;;;23.70;13.88;;;7.20;88.70;;;;;;10941852;32;20335;-71
2022/01/05 01:28:26;;;;;;;36.80;21.60;;;7.20;88.80;;;;;;10941633;32;20350;-70
2022/01/05 01:34:29;;;;;;;23.70;14.82;;;7.20;88.80;;;;;;10941538;32;20049;-71
2022/01/05 01:40:31;;;;;;;16.50;9.50;;;7.20;88.80;;;;;;10938103;32;20027;-70
2022/01/05 01:46:33;;;;;;;18.02;12.30;;;7.20;88.80;;;;;;10525908;27;12126812;-71
2022/01/05 01:52:35;;;;;;;26.02;16.77;;;7.20;88.80;;;;;;10900760;32;20046;-71
2022/01/05 01:58:38;;;;;;;42.50;25.62;;;7.20;88.80;;;;;;10887432;32;20371;-71
2022/01/05 02:04:41;;;;;;;30.42;19.50;;;7.20;88.60;;;;;;10896926;32;20336;-71
2022/01/05 02:10:43;;;;;;;24.20;15.18;;;7.20;88.70;;;;;;10900429;32;20092;-71
2022/01/05 02:16:46;;;;;;;38.47;22.50;;;7.10;88.80;;;;;;10949408;32;20069;-71
2022/01/05 02:22:49;;;;;;;40.15;22.62;;;7.20;88.80;;;;;;10985448;32;20419;-71
2022/01/05 02:28:51;;;;;;;32.55;21.00;;;7.20;88.80;;;;;;10980821;32;20061;-71
2022/01/05 02:34:54;;;;;;;19.45;14.27;;;7.20;88.70;;;;;;10980688;32;20084;-71
2022/01/05 02:40:56;;;;;;;27.25;18.87;;;7.20;88.80;;;;;;10971293;32;20049;-71
2022/01/05 02:46:58;;;;;;;43.42;27.95;;;7.20;88.80;;;;;;10981629;32;20039;-71
2022/01/05 02:53:00;;;;;;;36.17;21.77;;;7.20;88.70;;;;;;10981023;32;20027;-71
2022/01/05 02:59:03;;;;;;;30.12;18.87;;;7.20;88.80;;;;;;10984084;32;20026;-71
2022/01/05 03:05:06;;;;;;;28.52;17.95;;;7.20;88.80;;;;;;10983755;32;20023;-71
2022/01/05 03:11:08;;;;;;;47.72;28.87;;;7.20;88.80;;;;;;10983584;32;20045;-71
2022/01/05 03:17:11;;;;;;;27.45;18.98;;;7.20;88.70;;;;;;10983503;32;20019;-71
2022/01/05 03:23:13;;;;;;;23.15;13.32;;;7.20;88.70;;;;;;10981278;32;20052;-71
2022/01/05 03:29:15;;;;;;;26.27;18.67;;;7.20;88.70;;;;;;10982948;32;20030;-71
2022/01/05 03:35:18;;;;;;;37.83;25.65;;;7.20;88.70;;;;;;10982695;32;20061;-71
2022/01/05 03:41:20;;;;;;;42.58;28.92;;;7.20;88.70;;;;;;10982664;32;20019;-71
2022/01/05 03:47:22;;;;;;;34.25;19.45;;;7.20;88.70;;;;;;10982186;32;20053;-71
2022/01/05 03:53:24;;;;;;;45.58;28.27;;;7.10;88.70;;;;;;10978641;32;20050;-71
2022/01/05 03:59:26;;;;;;;49.00;33.90;;;7.10;88.80;;;;;;10981793;32;20034;-70
2022/01/05 04:05:28;;;;;;;27.23;19.98;;;7.10;88.80;;;;;;10981581;32;20316;-71
2022/01/05 04:11:31;;;;;;;31.92;19.73;;;7.10;88.90;;;;;;10981404;32;20053;-71
2022/01/05 04:17:34;;;;;;;36.08;21.35;;;7.10;88.90;;;;;;10981234;32;20019;-70
2022/01/05 04:23:36;;;;;;;31.65;19.52;;;7.10;88.90;;;;;;10981588;32;20049;-70
2022/01/05 04:29:38;;;;;;;38.25;24.70;;;7.20;88.90;;;;;;10980672;32;20301;-70
2022/01/05 04:35:40;;;;;;;28.95;18.92;;;7.10;88.90;;;;;;10980650;32;20339;-70
2022/01/05 04:41:42;;;;;;;23.50;13.07;;;7.20;89.00;;;;;;10980496;32;20018;-70
2022/01/05 04:47:45;;;;;;;28.92;20.12;;;7.20;89.00;;;;;;10980096;32;20058;-70
2022/01/05 04:53:47;;;;;;;26.15;18.48;;;7.20;88.90;;;;;;10978011;32;20362;-70
2022/01/05 04:59:49;;;;;;;19.12;14.50;;;7.20;88.90;;;;;;10978529;32;20429;-70
2022/01/05 05:05:51;;;;;;;14.40;9.90;;;7.20;88.90;;;;;;10979752;32;20046;-70
2022/01/05 05:11:53;;;;;;;32.97;22.70;;;7.20;88.90;;;;;;10979737;32;20023;-70
2022/01/05 05:17:55;;;;;;;21.45;12.35;;;7.30;88.80;;;;;;10979753;32;20019;-70
2022/01/05 05:23:58;;;;;;;23.62;12.40;;;7.20;88.80;;;;;;10979556;32;20339;-70
2022/01/05 05:30:00;;;;;;;23.92;12.90;;;7.30;88.90;;;;;;10979368;32;20350;-70
2022/01/05 05:36:03;;;;;;;28.52;18.98;;;7.20;88.90;;;;;;10979395;32;20042;-70
2022/01/05 05:42:05;;;;;;;21.42;13.15;;;7.30;88.80;;;;;;10979053;32;20026;-70
2022/01/05 05:48:08;;;;;;;38.70;23.65;;;7.20;88.90;;;;;;10986553;32;20034;-70
2022/01/05 05:54:10;;;;;;;19.70;11.27;;;7.30;88.90;;;;;;10986437;32;20026;-70
2022/01/05 06:00:14;;;;;;;62.40;33.20;;;7.30;88.90;;;;;;10984455;32;20027;-70
2022/01/05 06:06:16;;;;;;;43.10;23.48;;;7.30;88.90;;;;;;10986046;32;20053;-70
2022/01/05 06:12:18;;;;;;;25.77;16.10;;;7.20;89.00;;;;;;10985868;32;20057;-70
2022/01/05 06:18:20;;;;;;;43.30;26.48;;;7.20;89.10;;;;;;10985567;32;20065;-70
2022/01/05 06:24:22;;;;;;;27.92;16.60;;;7.20;89.00;;;;;;10981125;32;20324;-70
2022/01/05 06:30:24;;;;;;;34.65;20.73;;;7.20;89.10;;;;;;10984909;32;20439;-70
2022/01/05 06:36:26;;;;;;;45.08;24.52;;;7.20;89.10;;;;;;10984885;32;20018;-70
2022/01/05 06:42:28;;;;;;;46.30;26.12;;;7.20;89.10;;;;;;10984695;32;20022;-69
2022/01/05 06:48:30;;;;;;;36.50;23.65;;;7.20;89.10;;;;;;10984321;32;20061;-70
2022/01/05 06:54:32;;;;;;;39.03;24.33;;;7.20;89.10;;;;;;10983228;32;20027;-70
2022/01/05 07:00:34;;;;;;;44.45;24.35;;;7.20;89.20;;;;;;10980484;32;20081;-69
2022/01/05 07:06:41;;;;;;;33.42;23.17;;;7.20;89.20;;;;;;10984010;32;20045;-69
2022/01/05 07:12:44;;;;;;;24.60;15.23;;;7.20;89.30;;;;;;10970264;32;20027;-69
2022/01/05 07:18:55;;;;;;;44.05;28.67;;;7.30;89.20;;;;;;10983367;32;20031;-69
2022/01/05 07:24:57;;;;;;;19.45;13.55;;;7.30;89.30;;;;;;10983163;32;20026;-69
2022/01/05 07:30:59;;;;;;;28.55;13.18;;;7.30;89.20;;;;;;10983080;32;20019;-69
2022/01/05 07:37:01;;;;;;;55.08;32.80;;;7.30;89.20;;;;;;10979675;32;20323;-69
2022/01/05 07:43:06;;;;;;;22.37;13.73;;;7.30;89.20;;;;;;10982289;32;20019;-69
2022/01/05 07:49:08;;;;;;;33.30;19.75;;;7.30;89.20;;;;;;10981327;32;20068;-69
2022/01/05 07:55:11;;;;;;;23.30;13.90;;;7.30;89.20;;;;;;10968722;32;20018;-70
2022/01/05 08:01:15;;;;;;;30.02;20.98;;;7.30;89.30;;;;;;10981836;32;20050;-70
2022/01/05 08:07:17;;;;;;;29.20;20.60;;;7.30;89.20;;;;;;10981294;32;20038;-69
2022/01/05 08:13:19;;;;;;;27.60;22.45;;;7.40;89.30;;;;;;10981401;32;20026;-69
2022/01/05 08:19:21;;;;;;;28.00;14.82;;;7.40;89.30;;;;;;10981095;32;20041;-69
2022/01/05 08:25:23;;;;;;;33.13;20.67;;;7.40;89.30;;;;;;10980881;32;20023;-69
2022/01/05 08:31:27;;;;;;;32.25;20.95;;;7.50;89.30;;;;;;10980703;32;20042;-69
2022/01/05 08:37:33;;;;;;;36.22;23.55;;;7.40;89.30;;;;;;10978962;32;20048;-69
2022/01/05 08:43:35;;;;;;;33.70;21.05;;;7.50;89.30;;;;;;10979151;32;20031;-69
2022/01/05 08:49:38;;;;;;;51.47;33.90;;;7.50;89.30;;;;;;10979942;32;20053;-69
2022/01/05 08:55:44;;;;;;;26.73;18.65;;;7.50;89.30;;;;;;10979896;32;20011;-69
2022/01/05 09:02:02;;;;;;;35.45;22.85;;;7.50;89.30;;;;;;10978832;32;20033;-70
2022/01/05 09:08:06;;;;;;;39.90;27.62;;;7.50;89.40;;;;;;10979629;32;20026;-69
2022/01/05 09:14:08;;;;;;;33.33;22.92;;;7.60;89.40;;;;;;10979667;32;20441;-69
2022/01/05 09:20:10;;;;;;;28.98;21.87;;;7.60;89.40;;;;;;10966084;32;20049;-69
2022/01/05 09:26:13;;;;;;;33.38;21.87;;;7.60;89.50;;;;;;10941493;32;20065;-70
2022/01/05 09:32:15;;;;;;;26.17;18.15;;;7.60;89.50;;;;;;10942362;32;20227;-70
2022/01/05 09:38:34;;;;;;;18.12;12.93;;;7.70;89.60;;;;;;10941531;32;20069;-70
2022/01/05 09:44:42;;;;;;;21.27;16.15;;;7.70;89.60;;;;;;10963850;27;20057;-70
2022/01/05 09:51:06;;;;;;;24.53;18.87;;;7.70;89.60;;;;;;10976442;32;20058;-70
2022/01/05 09:57:12;;;;;;;25.35;19.15;;;7.80;89.60;;;;;;10978941;32;20387;-70
2022/01/05 10:03:14;;;;;;;30.50;22.80;;;7.90;89.60;;;;;;10978655;32;20343;-70
2022/01/05 10:09:17;;;;;;;39.60;23.77;;;7.90;89.60;;;;;;10978772;32;20018;-70
2022/01/05 10:15:19;;;;;;;33.40;21.08;;;8.00;89.70;;;;;;10978508;32;20026;-70
2022/01/05 10:21:21;;;;;;;24.95;16.45;;;8.00;89.80;;;;;;10977965;32;20065;-72
2022/01/05 10:27:26;;;;;;;30.50;20.80;;;8.10;89.90;;;;;;10968257;32;20034;-71
2022/01/05 10:33:28;;;;;;;24.23;15.77;;;8.20;89.90;;;;;;10984165;32;20049;-71
2022/01/05 10:39:39;;;;;;;33.08;24.83;;;8.40;89.90;;;;;;10983297;32;20053;-71
2022/01/05 10:45:47;;;;;;;29.80;20.50;;;8.40;89.80;;;;;;10968698;32;20026;-71
2022/01/05 10:51:49;;;;;;;34.20;25.02;;;8.50;89.90;;;;;;10984140;32;20023;-71
2022/01/05 10:57:59;;;;;;;29.98;21.98;;;8.50;90.00;;;;;;10981209;32;20022;-71
2022/01/05 11:04:22;;;;;;;33.83;23.90;;;8.60;90.00;;;;;;10983419;32;20049;-71
2022/01/05 11:10:24;;;;;;;28.70;21.30;;;8.60;90.10;;;;;;10983805;32;20057;-71
2022/01/05 11:16:30;;;;;;;32.58;24.45;;;8.70;90.00;;;;;;10983624;32;20037;-71
2022/01/05 11:22:33;;;;;;;38.55;24.35;;;8.70;90.10;;;;;;10983412;32;20010;-71
2022/01/05 11:28:38;;;;;;;33.65;22.52;;;8.70;90.20;;;;;;10983026;32;20054;-71
2022/01/05 11:42:10;;;;;;;29.40;19.70;;;8.70;90.30;;;;;;10829336;32;20039;-70
2022/01/05 11:48:24;;;;;;;27.83;18.45;;;8.70;90.40;;;;;;10828123;32;20454;-70
2022/01/05 11:54:33;;;;;;;32.55;26.40;;;8.80;90.40;;;;;;10826304;32;20023;-70
2022/01/05 12:00:35;;;;;;;37.72;27.58;;;8.90;90.30;;;;;;10828095;32;20067;-70
2022/01/05 12:06:46;;;;;;;25.62;18.00;;;9.00;90.30;;;;;;10827792;32;20388;-70
2022/01/05 12:12:57;;;;;;;25.48;21.55;;;9.20;90.40;;;;;;10816390;32;20028;-70
2022/01/05 12:19:07;;;;;;;22.55;17.98;;;9.30;90.20;;;;;;10972019;32;20045;-70
2022/01/05 12:25:12;;;;;;;28.00;24.42;;;9.30;90.20;;;;;;10978312;32;20027;-70
2022/01/05 12:31:14;;;;;;;26.00;19.42;;;9.30;90.20;;;;;;10980656;32;20045;-70
2022/01/05 12:37:46;;;;;;;21.17;16.30;;;9.50;90.30;;;;;;10976434;32;20022;-70
2022/01/05 12:43:49;;;;;;;22.58;15.63;;;9.50;90.20;;;;;;10980872;32;20041;-70
2022/01/05 12:50:11;;;;;;;21.33;15.50;;;9.60;90.20;;;;;;10980162;32;20027;-70
2022/01/05 12:56:26;;;;;;;18.33;14.18;;;9.60;90.10;;;;;;10979431;32;20019;-70
2022/01/05 13:02:29;;;;;;;26.40;19.48;;;9.70;90.10;;;;;;10979109;32;20027;-70
2022/01/05 13:08:32;;;;;;;16.67;12.77;;;9.70;90.10;;;;;;10977826;32;20342;-70
2022/01/05 13:14:42;;;;;;;20.30;14.87;;;9.60;90.10;;;;;;10979457;32;20061;-70
2022/01/05 13:20:44;;;;;;;25.95;16.15;;;9.60;90.20;;;;;;10979625;32;20003;-70
2022/01/05 13:27:04;;;;;;;24.23;15.90;;;9.50;90.30;;;;;;10979528;32;20022;-70
2022/01/05 13:33:11;;;;;;;24.35;18.45;;;9.50;90.40;;;;;;10957661;32;20383;-70
2022/01/05 13:39:37;;;;;;;24.35;18.77;;;9.50;90.50;;;;;;10941005;32;20355;-70
2022/01/05 13:45:45;;;;;;;27.55;20.83;;;9.40;90.50;;;;;;10937554;32;20019;-72
2022/01/05 13:52:08;;;;;;;27.85;20.45;;;9.40;90.60;;;;;;10941154;32;20026;-72
2022/01/05 13:58:23;;;;;;;20.37;15.65;;;9.40;90.60;;;;;;10933180;32;20045;-72
2022/01/05 14:04:25;;;;;;;24.45;18.25;;;9.40;90.60;;;;;;10942806;32;20480;-72
2022/01/05 14:10:27;;;;;;;21.35;17.83;;;9.40;90.60;;;;;;10946680;32;20019;-72
2022/01/05 14:16:39;;;;;;;16.85;13.65;;;9.40;90.60;;;;;;10947933;32;20023;-72
2022/01/05 14:22:41;;;;;;;23.48;16.87;;;9.40;90.70;;;;;;10947828;32;20023;-71
2022/01/05 14:28:44;;;;;;;32.90;25.05;;;9.30;90.70;;;;;;10946797;32;20030;-72
2022/01/05 14:34:52;;;;;;;22.77;16.20;;;9.30;90.60;;;;;;10947566;32;20038;-72
2022/01/05 14:41:12;;;;;;;22.08;17.05;;;9.30;90.60;;;;;;10942974;32;20027;-72
2022/01/05 14:47:24;;;;;;;20.75;16.02;;;9.30;90.70;;;;;;10947018;32;20015;-72
2022/01/05 14:53:31;;;;;;;18.45;14.57;;;9.30;90.70;;;;;;10946860;32;20398;-72
2022/01/05 14:59:33;;;;;;;22.95;19.50;;;9.20;90.70;;;;;;10938088;32;20065;-71
2022/01/05 15:05:37;;;;;;;22.65;18.25;;;9.20;90.70;;;;;;10932887;32;20051;-72
2022/01/05 15:11:40;;;;;;;30.65;23.30;;;9.20;90.70;;;;;;10946177;32;20045;-71
2022/01/05 15:17:43;;;;;;;31.05;22.73;;;9.20;90.80;;;;;;10944728;32;20038;-72
2022/01/05 15:23:45;;;;;;;27.95;20.27;;;9.20;90.80;;;;;;10931913;32;20047;-71
2022/01/05 15:29:48;;;;;;;26.10;21.48;;;9.20;90.70;;;;;;10945409;32;20030;-70
2022/01/05 15:35:50;;;;;;;26.10;22.00;;;9.20;90.70;;;;;;10944972;32;20387;-70
2022/01/05 15:41:53;;;;;;;23.30;18.12;;;9.10;90.70;;;;;;10945048;32;20015;-70
2022/01/05 15:47:55;;;;;;;28.08;21.15;;;9.10;90.70;;;;;;10944800;32;20058;-71
2022/01/05 15:53:57;;;;;;;16.45;13.30;;;9.20;90.60;;;;;;10944502;32;20038;-71
2022/01/05 16:06:20;;;;;;;12.90;7.90;;;9.20;90.40;;;;;;10945134;32;20351;-71
2022/01/05 16:12:22;;;;;;;8.60;6.62;;;9.10;90.30;;;;;;10927362;32;20019;-71
2022/01/05 16:18:25;;;;;;;10.38;7.18;;;9.10;90.20;;;;;;10939515;32;20062;-70
2022/01/05 16:24:27;;;;;;;10.43;7.05;;;9.10;90.20;;;;;;10943275;32;20418;-70
2022/01/05 16:30:29;;;;;;;10.13;7.78;;;9.10;90.20;;;;;;10925304;32;20480;-70
2022/01/05 16:36:32;;;;;;;8.82;5.80;;;9.00;89.80;;;;;;10941289;32;20023;-70
2022/01/05 16:42:34;;;;;;;10.27;7.15;;;9.00;89.60;;;;;;10940676;32;20027;-70
2022/01/05 16:48:37;;;;;;;7.20;5.40;;;9.00;89.40;;;;;;10942793;32;20019;-70
2022/01/05 16:54:43;;;;;;;6.03;3.65;;;8.90;89.00;;;;;;10942786;32;20049;-70
2022/01/05 17:00:46;;;;;;;5.30;2.35;;;8.90;88.90;;;;;;10939175;32;20081;-70
2022/01/05 17:06:48;;;;;;;3.10;2.22;;;8.90;88.50;;;;;;10942263;32;20039;-73
2022/01/05 17:12:50;;;;;;;4.40;2.60;;;8.80;88.10;;;;;;10942191;32;20042;-70
2022/01/05 17:18:52;;;;;;;3.90;2.33;;;8.80;88.10;;;;;;10942063;32;20010;-70
2022/01/05 17:24:54;;;;;;;3.95;2.05;;;8.70;88.30;;;;;;10928576;32;20011;-71
2022/01/05 17:30:57;;;;;;;2.75;1.58;;;8.70;88.40;;;;;;10941753;32;20031;-71
2022/01/05 17:36:59;;;;;;;4.25;1.95;;;8.70;88.20;;;;;;10939160;32;20016;-70
2022/01/05 17:43:02;;;;;;;2.90;1.40;;;8.60;88.30;;;;;;10959629;27;20072;-73
2022/01/05 17:49:04;;;;;;;2.62;1.45;;;8.50;88.30;;;;;;10986731;32;20027;-73
2022/01/05 17:55:07;;;;;;;1.85;1.27;;;8.50;88.50;;;;;;10986539;32;20058;-73
2022/01/05 18:01:10;;;;;;;3.50;1.67;;;8.50;88.60;;;;;;10986489;32;20023;-72
2022/01/05 18:07:12;;;;;;;3.33;1.48;;;8.40;88.80;;;;;;10986079;32;20068;-73
2022/01/05 18:13:16;;;;;;;6.97;2.55;;;8.40;88.70;;;;;;10986135;32;20022;-72
2022/01/05 18:19:19;;;;;;;1.08;0.95;;;8.40;88.60;;;;;;10972211;32;20022;-72
2022/01/05 18:25:22;;;;;;;2.30;1.45;;;8.30;88.80;;;;;;10984780;32;20327;-72
2022/01/05 18:31:24;;;;;;;3.58;2.20;;;8.40;88.80;;;;;;10985164;32;20056;-73
2022/01/05 18:37:32;;;;;;;2.05;1.42;;;8.30;88.70;;;;;;10985215;32;20344;-73
2022/01/05 18:43:34;;;;;;;2.33;1.60;;;8.30;88.70;;;;;;10954742;32;20073;-72
2022/01/05 18:49:36;;;;;;;2.62;1.73;;;8.20;88.50;;;;;;10947088;32;20089;-72
2022/01/05 18:55:38;;;;;;;3.83;1.92;;;8.20;88.60;;;;;;10946666;32;20031;-73
2022/01/05 19:01:41;;;;;;;1.83;1.25;;;8.20;88.80;;;;;;10946658;32;20323;-74
2022/01/05 19:07:43;;;;;;;2.47;1.80;;;8.20;88.70;;;;;;10946339;32;20053;-73
2022/01/05 19:13:48;;;;;;;3.53;2.22;;;8.20;88.80;;;;;;10944750;32;20027;-73
2022/01/05 19:19:51;;;;;;;5.05;2.92;;;8.20;88.80;;;;;;10946120;32;20022;-73
2022/01/05 19:25:54;;;;;;;5.15;2.90;;;8.20;88.90;;;;;;10943625;32;20050;-73
2022/01/05 19:31:57;;;;;;;5.07;2.55;;;8.10;88.90;;;;;;10945396;32;20058;-73
2022/01/05 19:37:59;;;;;;;5.40;2.50;;;8.20;89.00;;;;;;10945255;32;20438;-72
2022/01/05 19:44:02;;;;;;;8.57;3.00;;;8.20;88.90;;;;;;10945151;32;20359;-73
2022/01/05 19:50:04;;;;;;;2.62;1.80;;;8.10;88.60;;;;;;10944792;32;20031;-74
2022/01/05 19:56:18;;;;;;;2.22;1.55;;;8.00;88.20;;;;;;10940569;32;20050;-72
2022/01/05 20:02:21;;;;;;;2.33;1.12;;;7.90;88.30;;;;;;10943256;32;20027;-73
2022/01/05 20:08:23;;;;;;;1.85;0.80;;;7.70;87.70;;;;;;10944338;32;20022;-74
2022/01/05 20:14:25;;;;;;;3.70;1.73;;;7.60;87.60;;;;;;10944028;32;20053;-74
2022/01/05 20:20:27;;;;;;;2.75;0.77;;;7.50;88.10;;;;;;10943752;32;20023;-73
2022/01/05 20:26:31;;;;;;;2.72;1.80;;;7.40;88.10;;;;;;10929132;32;20031;-74
2022/01/05 20:32:36;;;;;;;0.73;0.60;;;7.30;88.10;;;;;;10943500;32;20049;-74
2022/01/05 20:38:38;;;;;;;3.03;0.50;;;7.20;87.80;;;;;;10942094;32;20287;-75
2022/01/05 20:44:41;;;;;;;0.90;0.80;;;7.20;88.10;;;;;;10941370;32;20027;-73
2022/01/05 20:50:43;;;;;;;1.08;0.62;;;7.10;88.20;;;;;;10943876;32;20426;-71
2022/01/05 20:56:46;;;;;;;1.90;1.02;;;7.10;88.20;;;;;;10942503;32;20085;-72
2022/01/05 21:02:49;;;;;;;2.45;0.90;;;7.00;88.20;;;;;;10938667;32;20343;-72
2022/01/05 21:08:52;;;;;;;2.22;1.45;;;6.90;88.20;;;;;;10942212;32;20027;-73
2022/01/05 21:14:55;;;;;;;2.33;1.37;;;6.90;88.10;;;;;;10941218;32;20034;-73
2022/01/05 21:20:58;;;;;;;4.37;1.60;;;6.90;88.30;;;;;;10941308;32;20449;-75
2022/01/05 21:27:00;;;;;;;2.33;1.45;;;6.80;88.20;;;;;;10941727;32;20027;-73
2022/01/05 21:33:04;;;;;;;2.55;1.30;;;6.70;88.10;;;;;;10941777;32;20031;-74
2022/01/05 21:39:06;;;;;;;0.95;0.65;;;6.70;88.10;;;;;;10941689;32;20055;-73
2022/01/05 21:45:09;;;;;;;2.30;1.20;;;6.70;88.30;;;;;;10941489;32;20026;-73
2022/01/05 21:51:12;;;;;;;3.25;1.52;;;6.60;88.40;;;;;;10939011;32;20028;-73
2022/01/05 21:57:15;;;;;;;6.10;3.35;;;6.60;88.10;;;;;;10941309;32;20046;-72
2022/01/05 22:03:17;;;;;;;1.87;0.95;;;6.50;87.60;;;;;;10941316;32;20053;-73
2022/01/05 22:09:20;;;;;;;2.72;1.25;;;6.40;87.90;;;;;;10941019;32;20035;-73
2022/01/05 22:15:22;;;;;;;5.68;1.00;;;6.20;87.70;;;;;;10941005;32;20031;-72
2022/01/05 22:21:24;;;;;;;1.40;0.75;;;6.20;87.50;;;;;;10941070;32;20061;-73
2022/01/05 22:27:27;;;;;;;0.60;0.50;;;6.10;87.60;;;;;;10943657;32;20477;-73
2022/01/05 22:33:29;;;;;;;0.75;0.73;;;6.00;87.50;;;;;;10947706;32;20027;-73
2022/01/05 22:39:32;;;;;;;1.10;0.50;;;6.00;87.40;;;;;;10947434;32;20031;-72
2022/01/05 22:45:35;;;;;;;1.75;0.57;;;5.90;87.40;;;;;;10947106;32;20023;-74
2022/01/05 22:51:37;;;;;;;2.30;0.77;;;5.80;87.60;;;;;;10947020;32;20386;-74
2022/01/05 22:57:41;;;;;;;7.40;3.15;;;5.70;87.20;;;;;;10946693;32;20057;-73
2022/01/05 23:03:43;;;;;;;2.22;1.02;;;5.70;87.50;;;;;;10946588;32;20027;-72
2022/01/05 23:09:45;;;;;;;3.28;1.30;;;5.70;87.50;;;;;;10946464;32;20027;-73
2022/01/05 23:15:47;;;;;;;1.08;0.50;;;5.70;87.60;;;;;;10945255;32;20081;-73
2022/01/05 23:21:50;;;;;;;0.30;0.30;;;5.70;87.50;;;;;;10945972;32;20030;-73
2022/01/05 23:27:52;;;;;;;1.48;0.75;;;5.70;87.10;;;;;;10932370;32;20035;-72
2022/01/05 23:33:54;;;;;;;0.75;0.40;;;5.60;87.20;;;;;;10932217;32;20023;-73
2022/01/05 23:39:57;;;;;;;0.62;0.60;;;5.60;87.20;;;;;;10931449;32;20068;-73
2022/01/05 23:46:01;;;;;;;1.25;0.88;;;5.60;87.20;;;;;;10945234;32;20030;-74
2022/01/05 23:52:05;;;;;;;0.45;0.25;;;5.50;87.30;;;;;;10944880;32;20027;-74
2022/01/05 23:58:07;;;;;;;0.80;0.50;;;5.50;87.40;;;;;;10931216;32;20051;-73
